Terminal Aerodrome Forecast
Issued by NWS

Home | Current Version | Previous Version | Text Only | Print | Product List | Glossary On
Versions: 1 2 3 4 5 6 7 8 9 10 11 12 13 14 15 16 17 18 19 20 21 22 23 24 25
000
FTUS44 KFWD 251123
TAFDAL
TAF
KDAL 251123Z 2512/2612 17015KT P6SM SCT015
     FM251600 18018G28KT P6SM FEW300
     FM260600 17017KT P6SM BKN015=

USA.gov is the U.S. government's official web portal to all federal, state and local government web resources and services.